createdAt,value
2023-04-10T00:00:51.132Z,960.50
2023-04-10T00:01:51.208Z,960.46
2023-04-10T00:02:51.255Z,960.44
2023-04-10T00:03:51.242Z,960.45
2023-04-10T00:04:51.210Z,960.45
2023-04-10T00:05:51.063Z,960.40
2023-04-10T00:06:51.072Z,960.39
2023-04-10T00:07:51.028Z,960.38
2023-04-10T00:08:51.034Z,960.38
2023-04-10T00:09:51.021Z,960.36
2023-04-10T00:10:51.050Z,960.36
2023-04-10T00:11:51.003Z,960.32
2023-04-10T00:12:50.958Z,960.32
2023-04-10T00:13:50.949Z,960.33
2023-04-10T00:14:50.925Z,960.30
2023-04-10T00:15:50.956Z,960.31
2023-04-10T00:16:50.969Z,960.23
2023-04-10T00:17:50.967Z,960.24
2023-04-10T00:18:50.880Z,960.19
2023-04-10T00:19:50.878Z,960.23
2023-04-10T00:20:50.898Z,960.20
2023-04-10T00:21:50.878Z,960.20
2023-04-10T00:22:50.883Z,960.21
2023-04-10T00:23:50.828Z,960.18
2023-04-10T00:24:50.848Z,960.19
2023-04-10T00:25:50.796Z,960.17
2023-04-10T00:26:50.772Z,960.14
2023-04-10T00:27:50.760Z,960.13
2023-04-10T00:28:50.774Z,960.16
2023-04-10T00:29:50.771Z,960.15
2023-04-10T00:30:50.730Z,960.10
2023-04-10T00:31:50.751Z,960.09
2023-04-10T00:32:50.778Z,960.05
2023-04-10T00:33:50.680Z,960.07
2023-04-10T00:34:50.712Z,960.03
2023-04-10T00:35:50.704Z,960.05
2023-04-10T00:36:50.655Z,960.05
2023-04-10T00:37:50.647Z,960.09
2023-04-10T00:38:50.627Z,960.12
2023-04-10T00:39:50.652Z,960.02
2023-04-10T00:40:50.600Z,960.06
2023-04-10T00:41:50.583Z,960.08
2023-04-10T00:42:50.564Z,960.06
2023-04-10T00:43:50.559Z,960.06
2023-04-10T00:44:50.566Z,960.06
2023-04-10T00:45:50.921Z,960.02
2023-04-10T00:46:50.530Z,960.00
2023-04-10T00:47:50.541Z,960.04
2023-04-10T00:48:50.495Z,960.04
2023-04-10T00:49:50.544Z,960.06
2023-04-10T00:50:50.451Z,960.05
2023-04-10T00:51:50.487Z,960.03
2023-04-10T00:52:50.438Z,960.03
2023-04-10T00:53:50.454Z,960.02
2023-04-10T00:54:50.407Z,960.01
2023-04-10T00:55:50.417Z,959.99
2023-04-10T00:56:50.509Z,959.94
2023-04-10T00:57:50.400Z,959.93
2023-04-10T00:58:50.358Z,959.93
2023-04-10T00:59:50.375Z,959.91
2023-04-10T01:00:50.339Z,959.92
2023-04-10T01:01:50.535Z,959.94
2023-04-10T01:02:50.452Z,959.94
2023-04-10T01:03:50.374Z,959.92
2023-04-10T01:04:50.276Z,959.92
2023-04-10T01:05:50.288Z,959.90
2023-04-10T01:06:50.260Z,959.89
2023-04-10T01:07:50.251Z,959.87
2023-04-10T01:08:50.222Z,959.90
2023-04-10T01:09:50.239Z,959.91
2023-04-10T01:10:50.236Z,959.87
2023-04-10T01:11:50.201Z,959.90
2023-04-10T01:12:50.166Z,959.92
2023-04-10T01:13:50.155Z,959.90
2023-04-10T01:14:50.240Z,959.87
2023-04-10T01:15:50.207Z,959.90
2023-04-10T01:16:50.237Z,959.89
2023-04-10T01:17:50.202Z,959.89
2023-04-10T01:18:50.116Z,959.90
2023-04-10T01:19:50.083Z,959.92
2023-04-10T01:20:50.101Z,959.91
2023-04-10T01:21:50.056Z,959.87
2023-04-10T01:22:50.096Z,959.91
2023-04-10T01:23:50.056Z,959.88
2023-04-10T01:24:50.023Z,959.86
2023-04-10T01:25:50.011Z,959.89
2023-04-10T01:26:50.028Z,959.83
2023-04-10T01:27:49.969Z,959.87
2023-04-10T01:28:49.979Z,959.86
2023-04-10T01:29:49.948Z,959.87
2023-04-10T01:30:49.995Z,959.85
2023-04-10T01:31:49.961Z,959.84
2023-04-10T01:32:50.025Z,959.80
2023-04-10T01:33:49.930Z,959.80
2023-04-10T01:34:49.908Z,959.74
2023-04-10T01:35:49.937Z,959.75
2023-04-10T01:36:49.897Z,959.74
2023-04-10T01:37:49.871Z,959.77
2023-04-10T01:38:49.897Z,959.81
2023-04-10T01:39:49.861Z,959.81
2023-04-10T01:40:49.809Z,959.77
2023-04-10T01:41:49.799Z,959.74
2023-04-10T01:42:49.835Z,959.74
2023-04-10T01:43:49.778Z,959.73
2023-04-10T01:44:49.763Z,959.73
2023-04-10T01:45:49.746Z,959.77
2023-04-10T01:46:49.876Z,959.73
2023-04-10T01:47:49.781Z,959.72
2023-04-10T01:48:49.707Z,959.75
2023-04-10T01:49:49.703Z,959.70
2023-04-10T01:50:49.688Z,959.67
2023-04-10T01:51:49.692Z,959.71
2023-04-10T01:52:49.704Z,959.69
2023-04-10T01:53:49.647Z,959.67
2023-04-10T01:54:49.633Z,959.63
2023-04-10T01:55:49.644Z,959.64
2023-04-10T01:56:49.601Z,959.61
2023-04-10T01:57:49.638Z,959.62
2023-04-10T01:58:49.581Z,959.58
2023-04-10T01:59:49.577Z,959.57
2023-04-10T02:00:49.572Z,959.61
2023-04-10T02:01:49.648Z,959.59
2023-04-10T02:02:49.764Z,959.60
2023-04-10T02:03:49.624Z,959.64
2023-04-10T02:04:49.566Z,959.61
2023-04-10T02:05:49.497Z,959.64
2023-04-10T02:06:49.547Z,959.66
2023-04-10T02:07:49.513Z,959.72
2023-04-10T02:08:49.454Z,959.71
2023-04-10T02:09:49.439Z,959.71
2023-04-10T02:10:49.437Z,959.72
2023-04-10T02:11:49.446Z,959.77
2023-04-10T02:12:49.448Z,959.74
2023-04-10T02:13:49.386Z,959.71
2023-04-10T02:14:49.414Z,959.67
2023-04-10T02:15:49.399Z,959.72
2023-04-10T02:16:49.358Z,959.71
2023-04-10T02:17:49.390Z,959.75
2023-04-10T02:18:49.317Z,959.74
2023-04-10T02:19:49.324Z,959.75
2023-04-10T02:20:49.330Z,959.75
2023-04-10T02:21:49.309Z,959.74
2023-04-10T02:22:49.267Z,959.74
2023-04-10T02:23:49.288Z,959.74
2023-04-10T02:24:49.248Z,959.77
2023-04-10T02:25:49.294Z,959.74
2023-04-10T02:26:49.235Z,959.77
2023-04-10T02:27:49.223Z,959.76
2023-04-10T02:28:49.242Z,959.77
2023-04-10T02:29:49.194Z,959.73
2023-04-10T02:30:49.177Z,959.76
2023-04-10T02:31:49.211Z,959.74
2023-04-10T02:32:49.190Z,959.71
2023-04-10T02:33:49.146Z,959.69
2023-04-10T02:34:49.125Z,959.68
2023-04-10T02:35:49.243Z,959.67
2023-04-10T02:36:49.090Z,959.71
2023-04-10T02:37:49.070Z,959.66
2023-04-10T02:38:49.103Z,959.70
2023-04-10T02:39:49.085Z,959.70
2023-04-10T02:40:49.031Z,959.68
2023-04-10T02:41:49.020Z,959.70
2023-04-10T02:42:49.003Z,959.69
2023-04-10T02:43:49.004Z,959.68
2023-04-10T02:44:49.020Z,959.72
2023-04-10T02:45:48.992Z,959.69
2023-04-10T02:46:49.004Z,959.71
2023-04-10T02:47:49.072Z,959.71
2023-04-10T02:48:48.948Z,959.73
2023-04-10T02:49:48.949Z,959.71
2023-04-10T02:50:48.895Z,959.72
2023-04-10T02:51:48.905Z,959.69
2023-04-10T02:52:48.881Z,959.68
2023-04-10T02:53:48.865Z,959.73
2023-04-10T02:54:48.891Z,959.71
2023-04-10T02:55:48.833Z,959.70
2023-04-10T02:56:48.829Z,959.66
2023-04-10T02:57:48.830Z,959.68
2023-04-10T02:58:48.828Z,959.69
2023-04-10T02:59:48.815Z,959.68
2023-04-10T03:00:48.788Z,959.65
2023-04-10T03:01:48.826Z,959.66
2023-04-10T03:02:49.089Z,959.61
2023-04-10T03:03:48.850Z,959.65
2023-04-10T03:04:48.788Z,959.60
2023-04-10T03:05:48.730Z,959.60
2023-04-10T03:06:48.721Z,959.56
2023-04-10T03:07:48.726Z,959.57
2023-04-10T03:08:48.710Z,959.54
2023-04-10T03:09:48.711Z,959.52
2023-04-10T03:10:48.685Z,959.54
2023-04-10T03:11:48.636Z,959.51
2023-04-10T03:12:48.657Z,959.49
2023-04-10T03:13:48.641Z,959.51
2023-04-10T03:14:48.587Z,959.50
2023-04-10T03:15:48.600Z,959.51
2023-04-10T03:16:48.564Z,959.50
2023-04-10T03:17:48.617Z,959.53
2023-04-10T03:18:48.583Z,959.53
2023-04-10T03:19:48.562Z,959.51
2023-04-10T03:20:48.540Z,959.51
2023-04-10T03:21:48.539Z,959.50
2023-04-10T03:22:48.523Z,959.54
2023-04-10T03:23:48.482Z,959.54
2023-04-10T03:24:48.478Z,959.54
2023-04-10T03:25:48.460Z,959.52
2023-04-10T03:26:48.465Z,959.53
2023-04-10T03:27:48.429Z,959.56
2023-04-10T03:28:48.441Z,959.51
2023-04-10T03:29:48.406Z,959.49
2023-04-10T03:30:48.408Z,959.52
2023-04-10T03:31:48.449Z,959.49
2023-04-10T03:32:48.377Z,959.47
2023-04-10T03:33:48.424Z,959.47
2023-04-10T03:34:48.345Z,959.45
2023-04-10T03:35:48.415Z,959.46
2023-04-10T03:36:48.344Z,959.49
2023-04-10T03:37:48.312Z,959.49
2023-04-10T03:38:48.324Z,959.52
2023-04-10T03:39:48.274Z,959.52
2023-04-10T03:40:48.254Z,959.51
2023-04-10T03:41:48.260Z,959.48
2023-04-10T03:42:48.230Z,959.49
2023-04-10T03:43:48.261Z,959.49
2023-04-10T03:44:48.207Z,959.49
2023-04-10T03:45:48.210Z,959.48
2023-04-10T03:46:48.229Z,959.49
2023-04-10T03:47:48.246Z,959.43
2023-04-10T03:48:48.158Z,959.50
2023-04-10T03:49:48.149Z,959.53
2023-04-10T03:50:48.130Z,959.45
2023-04-10T03:51:48.127Z,959.48
2023-04-10T03:52:48.143Z,959.53
2023-04-10T03:53:48.108Z,959.54
2023-04-10T03:54:48.086Z,959.57
2023-04-10T03:55:48.058Z,959.46
2023-04-10T03:56:48.074Z,959.50
2023-04-10T03:57:48.088Z,959.50
2023-04-10T03:58:48.027Z,959.52
2023-04-10T03:59:48.023Z,959.52
2023-04-10T04:00:48.001Z,959.54
2023-04-10T04:01:48.078Z,959.52
2023-04-10T04:02:48.037Z,959.53
2023-04-10T04:03:48.121Z,959.54
2023-04-10T04:04:48.025Z,959.55
2023-04-10T04:05:47.934Z,959.54
2023-04-10T04:06:47.945Z,959.57
2023-04-10T04:07:47.909Z,959.56
2023-04-10T04:08:47.947Z,959.58
2023-04-10T04:09:47.891Z,959.58
2023-04-10T04:10:47.861Z,959.63
2023-04-10T04:11:47.877Z,959.64
2023-04-10T04:12:47.842Z,959.61
2023-04-10T04:13:47.838Z,959.64
2023-04-10T04:14:47.818Z,959.66
2023-04-10T04:15:47.826Z,959.69
2023-04-10T04:16:47.859Z,959.66
2023-04-10T04:17:47.860Z,959.63
2023-04-10T04:18:47.758Z,959.67
2023-04-10T04:19:47.754Z,959.69
2023-04-10T04:20:47.727Z,959.73
2023-04-10T04:21:47.757Z,959.77
2023-04-10T04:22:47.745Z,959.75
2023-04-10T04:23:47.708Z,959.76
2023-04-10T04:24:47.697Z,959.77
2023-04-10T04:25:47.673Z,959.76
2023-04-10T04:26:47.660Z,959.75
2023-04-10T04:27:47.685Z,959.76
2023-04-10T04:28:47.632Z,959.79
2023-04-10T04:29:47.651Z,959.73
2023-04-10T04:30:47.622Z,959.74
2023-04-10T04:31:47.710Z,959.77
2023-04-10T04:32:47.621Z,959.74
2023-04-10T04:33:47.588Z,959.78
2023-04-10T04:34:47.564Z,959.80
2023-04-10T04:35:47.591Z,959.76
2023-04-10T04:36:47.528Z,959.76
2023-04-10T04:37:47.520Z,959.77
2023-04-10T04:39:02.758Z,959.78
2023-04-10T04:39:47.508Z,959.76
2023-04-10T04:40:47.502Z,959.82
2023-04-10T04:41:47.519Z,959.83
2023-04-10T04:42:47.487Z,959.80
2023-04-10T04:43:47.464Z,959.81
2023-04-10T04:44:47.426Z,959.78
2023-04-10T04:45:47.483Z,959.80
2023-04-10T04:46:47.394Z,959.79
2023-04-10T04:47:47.442Z,959.80
2023-04-10T04:48:47.370Z,959.78
2023-04-10T04:49:47.370Z,959.77
2023-04-10T04:50:47.350Z,959.78
2023-04-10T04:51:47.359Z,959.81
2023-04-10T04:52:47.360Z,959.80
2023-04-10T04:53:47.365Z,959.79
2023-04-10T04:54:47.312Z,959.83
2023-04-10T04:55:47.283Z,959.83
2023-04-10T04:56:47.373Z,959.81
2023-04-10T04:57:47.290Z,959.83
2023-04-10T04:58:47.250Z,959.83
2023-04-10T04:59:47.224Z,959.82
2023-04-10T05:00:47.207Z,959.81
2023-04-10T05:01:47.351Z,959.83
2023-04-10T05:02:47.314Z,959.86
2023-04-10T05:03:47.287Z,959.81
2023-04-10T05:04:47.196Z,959.80
2023-04-10T05:05:47.154Z,959.84
2023-04-10T05:06:47.148Z,959.86
2023-04-10T05:07:47.142Z,959.84
2023-04-10T05:08:47.160Z,959.88
2023-04-10T05:09:47.139Z,959.85
2023-04-10T05:10:47.096Z,959.88
2023-04-10T05:11:47.073Z,959.87
2023-04-10T05:12:47.055Z,959.90
2023-04-10T05:13:47.070Z,959.89
2023-04-10T05:14:47.053Z,959.91
2023-04-10T05:15:47.055Z,959.91
2023-04-10T05:16:47.026Z,959.92
2023-04-10T05:17:47.106Z,959.90
2023-04-10T05:18:47.097Z,959.90
2023-04-10T05:19:46.989Z,959.89
2023-04-10T05:20:46.978Z,959.92
2023-04-10T05:21:46.954Z,959.92
2023-04-10T05:22:46.952Z,959.93
2023-04-10T05:23:46.946Z,959.95
2023-04-10T05:24:46.913Z,959.96
2023-04-10T05:25:46.990Z,959.88
2023-04-10T05:26:46.927Z,959.90
2023-04-10T05:27:46.940Z,959.91
2023-04-10T05:28:46.868Z,959.90
2023-04-10T05:29:46.856Z,959.89
2023-04-10T05:30:46.890Z,959.86
2023-04-10T05:31:46.869Z,959.85
2023-04-10T05:32:46.824Z,959.84
2023-04-10T05:33:46.811Z,959.84
2023-04-10T05:34:46.787Z,959.87
2023-04-10T05:35:46.764Z,959.89
2023-04-10T05:36:46.784Z,959.89
2023-04-10T05:37:46.741Z,959.90
2023-04-10T05:38:46.730Z,959.94
2023-04-10T05:39:46.720Z,959.90
2023-04-10T05:40:46.756Z,959.92
2023-04-10T05:41:46.675Z,959.92
2023-04-10T05:42:46.692Z,959.92
2023-04-10T05:43:46.667Z,959.98
2023-04-10T05:44:46.679Z,959.97
2023-04-10T05:45:46.799Z,959.91
2023-04-10T05:46:46.719Z,959.95
2023-04-10T05:47:46.641Z,959.99
2023-04-10T05:48:46.603Z,959.96
2023-04-10T05:49:46.622Z,959.96
2023-04-10T05:50:46.573Z,959.96
2023-04-10T05:51:46.555Z,960.01
2023-04-10T05:52:46.595Z,959.97
2023-04-10T05:53:46.600Z,960.01
2023-04-10T05:54:46.548Z,960.04
2023-04-10T05:55:46.501Z,959.98
2023-04-10T05:56:46.496Z,960.01
2023-04-10T05:57:46.482Z,960.03
2023-04-10T05:58:46.488Z,960.06
2023-04-10T05:59:46.457Z,960.04
2023-04-10T06:00:46.472Z,960.03
2023-04-10T06:01:46.447Z,959.95
2023-04-10T06:02:46.632Z,959.94
2023-04-10T06:03:46.649Z,960.02
2023-04-10T06:04:46.616Z,960.03
2023-04-10T06:05:46.405Z,960.01
2023-04-10T06:06:46.410Z,960.02
2023-04-10T06:07:46.364Z,960.01
2023-04-10T06:08:46.369Z,960.03
2023-04-10T06:09:46.326Z,960.01
2023-04-10T06:10:46.375Z,960.04
2023-04-10T06:11:46.304Z,960.06
2023-04-10T06:12:46.272Z,959.97
2023-04-10T06:13:46.296Z,959.91
2023-04-10T06:14:46.322Z,959.97
2023-04-10T06:15:46.268Z,959.90
2023-04-10T06:16:46.263Z,959.89
2023-04-10T06:17:46.299Z,959.87
2023-04-10T06:18:46.200Z,959.90
2023-04-10T06:19:46.203Z,959.86
2023-04-10T06:20:46.192Z,959.86
2023-04-10T06:21:46.186Z,959.86
2023-04-10T06:22:46.175Z,959.87
2023-04-10T06:23:46.180Z,959.88
2023-04-10T06:24:46.132Z,959.86
2023-04-10T06:25:46.107Z,959.87
2023-04-10T06:26:46.130Z,959.86
2023-04-10T06:27:46.114Z,959.75
2023-04-10T06:28:46.062Z,959.81
2023-04-10T06:29:46.081Z,959.77
2023-04-10T06:30:46.048Z,959.80
2023-04-10T06:31:46.167Z,959.77
2023-04-10T06:32:46.091Z,959.80
2023-04-10T06:33:46.046Z,959.77
2023-04-10T06:34:46.005Z,959.79
2023-04-10T06:35:46.002Z,959.78
2023-04-10T06:36:45.966Z,959.78
2023-04-10T06:37:45.993Z,959.73
2023-04-10T06:38:45.981Z,959.71
2023-04-10T06:39:45.947Z,959.72
2023-04-10T06:40:45.917Z,959.68
2023-04-10T06:41:45.910Z,959.71
2023-04-10T06:42:45.927Z,959.66
2023-04-10T06:43:45.877Z,959.70
2023-04-10T06:44:45.895Z,959.70
2023-04-10T06:45:45.914Z,959.72
2023-04-10T06:46:45.894Z,959.61
2023-04-10T06:47:45.844Z,959.66
2023-04-10T06:48:45.815Z,959.57
2023-04-10T06:49:45.818Z,959.61
2023-04-10T06:50:45.786Z,959.59
2023-04-10T06:51:45.773Z,959.55
2023-04-10T06:52:45.753Z,959.52
2023-04-10T06:53:45.745Z,959.51
2023-04-10T06:54:45.765Z,959.45
2023-04-10T06:55:45.711Z,959.48
2023-04-10T06:56:45.708Z,959.48
2023-04-10T06:57:45.712Z,959.42
2023-04-10T06:58:45.670Z,959.42
2023-04-10T06:59:45.704Z,959.44
2023-04-10T07:00:45.721Z,959.42
2023-04-10T07:05:07.219Z,959.38
2023-04-10T07:06:07.908Z,959.34
2023-04-10T07:07:07.916Z,959.31
2023-04-10T07:08:07.887Z,959.23
2023-04-10T07:09:07.883Z,959.29
2023-04-10T07:10:07.875Z,959.32
2023-04-10T07:11:07.845Z,959.31
2023-04-10T07:12:07.821Z,959.32
2023-04-10T07:13:07.843Z,959.33
2023-04-10T07:14:07.805Z,959.34
2023-04-10T07:15:07.824Z,959.37
2023-04-10T07:16:07.881Z,959.30
2023-04-10T07:17:07.764Z,959.32
2023-04-10T07:18:07.880Z,959.37
2023-04-10T07:19:07.754Z,959.31
2023-04-10T07:20:07.751Z,959.36
2023-04-10T07:21:07.734Z,959.40
2023-04-10T07:22:07.697Z,959.41
2023-04-10T07:23:07.694Z,959.41
2023-04-10T07:24:07.674Z,959.38
2023-04-10T07:25:07.651Z,959.37
2023-04-10T07:26:07.672Z,959.36
2023-04-10T07:27:07.641Z,959.35
2023-04-10T07:28:07.604Z,959.45
2023-04-10T07:29:07.588Z,959.38
2023-04-10T07:30:07.605Z,959.36
2023-04-10T07:31:07.599Z,959.38
2023-04-10T07:32:07.585Z,959.36
2023-04-10T07:33:07.853Z,959.35
2023-04-10T07:34:07.530Z,959.37
2023-04-10T07:35:07.552Z,959.35
2023-04-10T07:36:07.561Z,959.35
2023-04-10T07:37:07.524Z,959.38
2023-04-10T07:38:07.473Z,959.36
2023-04-10T07:39:07.472Z,959.34
2023-04-10T07:40:07.466Z,959.38
2023-04-10T07:41:07.567Z,959.36
2023-04-10T07:42:07.444Z,959.39
2023-04-10T07:43:07.435Z,959.32
2023-04-10T07:44:07.401Z,959.33
2023-04-10T07:45:07.424Z,959.35
2023-04-10T07:46:07.418Z,959.30
2023-04-10T07:47:07.351Z,959.28
2023-04-10T07:48:07.346Z,959.29
2023-04-10T07:49:08.725Z,959.26
2023-04-10T07:50:07.311Z,959.28
2023-04-10T07:51:07.294Z,959.23
2023-04-10T07:52:07.280Z,959.24
2023-04-10T07:53:07.298Z,959.20
2023-04-10T07:54:07.283Z,959.17
2023-04-10T07:55:07.261Z,959.13
2023-04-10T07:56:07.237Z,959.13
2023-04-10T07:57:07.222Z,959.14
2023-04-10T07:58:07.189Z,959.10
2023-04-10T07:59:07.210Z,959.09
2023-04-10T08:00:07.300Z,959.07
2023-04-10T08:01:07.154Z,959.09
2023-04-10T08:02:07.239Z,959.09
2023-04-10T08:03:07.527Z,959.05
2023-04-10T08:04:07.257Z,959.08
2023-04-10T08:05:07.235Z,959.04
2023-04-10T08:06:07.087Z,959.05
2023-04-10T08:07:07.063Z,959.03
2023-04-10T08:08:07.071Z,959.04
2023-04-10T08:09:07.063Z,959.04
2023-04-10T08:10:07.058Z,959.00
2023-04-10T08:11:07.026Z,959.01
2023-04-10T08:12:07.023Z,959.00
2023-04-10T08:13:06.993Z,959.01
2023-04-10T08:14:07.144Z,959.00
2023-04-10T08:15:06.993Z,958.99
2023-04-10T08:16:06.938Z,959.00
2023-04-10T08:17:07.081Z,959.04
2023-04-10T08:18:06.957Z,958.98
2023-04-10T08:19:06.922Z,958.98
2023-04-10T08:20:06.906Z,958.96
2023-04-10T08:21:06.922Z,958.98
2023-04-10T08:22:06.908Z,958.93
2023-04-10T08:23:19.915Z,958.95
2023-04-10T08:24:06.885Z,958.94
2023-04-10T08:25:06.848Z,959.00
2023-04-10T08:26:06.830Z,958.97
2023-04-10T08:27:06.795Z,959.00
2023-04-10T08:28:06.833Z,958.98
2023-04-10T08:29:06.770Z,959.01
2023-04-10T08:30:06.756Z,958.99
2023-04-10T08:31:06.794Z,958.99
2023-04-10T08:32:06.765Z,958.99
2023-04-10T08:33:06.725Z,959.01
2023-04-10T08:34:06.727Z,958.97
2023-04-10T08:35:06.698Z,959.00
2023-04-10T08:36:06.753Z,959.04
2023-04-10T08:37:06.700Z,959.00
2023-04-10T08:39:06.680Z,959.03
2023-04-10T08:40:06.605Z,959.01
2023-04-10T08:41:06.693Z,958.99
2023-04-10T08:42:06.621Z,958.94
2023-04-10T08:43:06.569Z,958.96
2023-04-10T08:44:06.580Z,958.96
2023-04-10T08:45:06.556Z,958.97
2023-04-10T08:46:06.577Z,958.89
2023-04-10T08:47:06.568Z,958.94
2023-04-10T08:48:06.512Z,958.90
2023-04-10T08:49:06.506Z,958.86
2023-04-10T08:50:06.516Z,958.92
2023-04-10T08:51:08.855Z,958.86
2023-04-10T08:52:06.452Z,958.87
2023-04-10T08:53:06.481Z,958.87
2023-04-10T08:54:06.420Z,958.83
2023-04-10T08:55:06.424Z,958.78
2023-04-10T08:56:06.406Z,958.80
2023-04-10T08:57:06.390Z,958.80
2023-04-10T08:58:06.408Z,958.81
2023-04-10T08:59:06.370Z,958.81
2023-04-10T09:00:19.857Z,958.78
2023-04-10T09:01:06.370Z,958.80
2023-04-10T09:02:06.362Z,958.79
2023-04-10T09:03:06.424Z,958.80
2023-04-10T09:04:06.381Z,958.80
2023-04-10T09:05:06.281Z,958.79
2023-04-10T09:06:06.310Z,958.80
2023-04-10T09:07:06.243Z,958.81
2023-04-10T09:08:06.281Z,958.77
2023-04-10T09:09:06.230Z,958.78
2023-04-10T09:10:06.204Z,958.77
2023-04-10T09:11:06.209Z,958.74
2023-04-10T09:12:06.253Z,958.74
2023-04-10T09:13:06.168Z,958.72
2023-04-10T09:14:06.177Z,958.71
2023-04-10T09:15:06.125Z,958.71
2023-04-10T09:16:06.177Z,958.63
2023-04-10T09:17:06.108Z,958.68
2023-04-10T09:18:06.191Z,958.68
2023-04-10T09:19:06.458Z,958.71
2023-04-10T09:20:06.071Z,958.66
2023-04-10T09:21:06.053Z,958.58
2023-04-10T09:22:06.045Z,958.62
2023-04-10T09:23:06.053Z,958.54
2023-04-10T09:24:06.032Z,958.61
2023-04-10T09:25:06.016Z,958.60
2023-04-10T09:26:05.988Z,958.63
2023-04-10T09:27:05.997Z,958.64
2023-04-10T09:28:06.010Z,958.67
2023-04-10T09:29:05.975Z,958.67
2023-04-10T09:30:05.930Z,958.62
2023-04-10T09:31:05.970Z,958.64
2023-04-10T09:32:05.918Z,958.60
2023-04-10T09:33:05.915Z,958.61
2023-04-10T09:34:05.876Z,958.59
2023-04-10T09:35:05.924Z,958.62
2023-04-10T09:36:05.892Z,958.56
2023-04-10T09:37:05.838Z,958.56
2023-04-10T09:38:05.849Z,958.52
2023-04-10T09:39:05.824Z,958.56
2023-04-10T09:40:05.843Z,958.55
2023-04-10T09:41:05.821Z,958.54
2023-04-10T09:42:05.788Z,958.49
2023-04-10T09:43:05.752Z,958.47
2023-04-10T09:44:05.749Z,958.48
2023-04-10T09:45:05.775Z,958.46
2023-04-10T09:46:05.759Z,958.45
2023-04-10T09:47:05.714Z,958.46
2023-04-10T09:48:05.738Z,958.44
2023-04-10T09:49:05.669Z,958.45
2023-04-10T09:50:05.681Z,958.40
2023-04-10T09:51:05.674Z,958.39
2023-04-10T09:52:05.633Z,958.35
2023-04-10T09:53:05.617Z,958.34
2023-04-10T09:54:05.698Z,958.31
2023-04-10T09:55:05.626Z,958.33
2023-04-10T09:56:05.577Z,958.26
2023-04-10T09:57:05.618Z,958.28
2023-04-10T09:58:05.593Z,958.26
2023-04-10T09:59:05.575Z,958.24
2023-04-10T10:00:05.565Z,958.26
2023-04-10T10:01:05.536Z,958.22
2023-04-10T10:02:05.563Z,958.22
2023-04-10T10:03:05.766Z,958.19
2023-04-10T10:04:05.532Z,958.15
2023-04-10T10:05:05.634Z,958.13
2023-04-10T10:06:05.457Z,958.13
2023-04-10T10:07:05.445Z,958.14
2023-04-10T10:08:05.452Z,958.11
2023-04-10T10:09:05.467Z,958.06
2023-04-10T10:10:05.407Z,958.09
2023-04-10T10:11:05.398Z,958.05
2023-04-10T10:12:05.381Z,958.07
2023-04-10T10:13:05.405Z,958.06
2023-04-10T10:14:05.374Z,958.04
2023-04-10T10:15:05.357Z,958.02
2023-04-10T10:16:05.350Z,958.04
2023-04-10T10:17:05.297Z,957.99
2023-04-10T10:18:05.386Z,957.98
2023-04-10T10:19:05.309Z,957.94
2023-04-10T10:20:05.286Z,957.93
2023-04-10T10:21:05.260Z,957.95
2023-04-10T10:22:05.240Z,957.95
2023-04-10T10:23:05.286Z,957.96
2023-04-10T10:24:05.257Z,957.93
2023-04-10T10:25:05.193Z,957.90
2023-04-10T10:26:05.207Z,957.89
2023-04-10T10:27:05.176Z,957.89
2023-04-10T10:28:05.150Z,957.89
2023-04-10T10:29:05.160Z,957.89
2023-04-10T10:30:12.106Z,957.86
2023-04-10T10:31:05.167Z,957.84
2023-04-10T10:32:05.125Z,957.89
2023-04-10T10:33:05.124Z,957.82
2023-04-10T10:34:05.133Z,957.85
2023-04-10T10:35:05.067Z,957.84
2023-04-10T10:36:05.113Z,957.82
2023-04-10T10:37:05.054Z,957.80
2023-04-10T10:38:05.032Z,957.81
2023-04-10T10:39:05.023Z,957.76
2023-04-10T10:40:05.016Z,957.71
2023-04-10T10:41:04.968Z,957.68
2023-04-10T10:42:05.009Z,957.67
2023-04-10T10:43:04.951Z,957.67
2023-04-10T10:44:04.933Z,957.66
2023-04-10T10:45:04.937Z,957.71
2023-04-10T10:46:05.040Z,957.66
2023-04-10T10:47:04.921Z,957.63
2023-04-10T10:48:04.973Z,957.63
2023-04-10T10:49:04.868Z,957.65
2023-04-10T10:50:04.878Z,957.58
2023-04-10T10:51:04.867Z,957.60
2023-04-10T10:52:04.836Z,957.56
2023-04-10T10:53:04.823Z,957.57
2023-04-10T10:54:04.822Z,957.63
2023-04-10T10:55:04.785Z,957.65
2023-04-10T10:56:04.803Z,957.57
2023-04-10T10:57:04.806Z,957.59
2023-04-10T10:58:04.769Z,957.58
2023-04-10T10:59:04.722Z,957.58
2023-04-10T11:00:04.735Z,957.56
2023-04-10T11:01:04.778Z,957.49
2023-04-10T11:02:04.761Z,957.53
2023-04-10T11:03:04.843Z,957.47
2023-04-10T11:04:04.757Z,957.46
2023-04-10T11:05:04.690Z,957.43
2023-04-10T11:06:04.653Z,957.45
2023-04-10T11:07:04.633Z,957.50
2023-04-10T11:08:04.613Z,957.44
2023-04-10T11:09:04.653Z,957.48
2023-04-10T11:10:04.579Z,957.42
2023-04-10T11:11:04.610Z,957.38
2023-04-10T11:12:04.577Z,957.38
2023-04-10T11:13:04.552Z,957.36
2023-04-10T11:14:04.622Z,957.31
2023-04-10T11:15:04.559Z,957.28
2023-04-10T11:16:04.535Z,957.29
2023-04-10T11:17:04.602Z,957.28
2023-04-10T11:18:04.472Z,957.25
2023-04-10T11:19:14.177Z,957.16
2023-04-10T11:20:04.484Z,957.12
2023-04-10T11:21:04.436Z,957.16
2023-04-10T11:22:04.483Z,957.13
2023-04-10T11:23:04.433Z,957.12
2023-04-10T11:24:04.466Z,957.10
2023-04-10T11:25:04.388Z,957.08
2023-04-10T11:26:04.393Z,957.08
2023-04-10T11:27:04.359Z,957.06
2023-04-10T11:28:04.336Z,957.07
2023-04-10T11:29:04.338Z,957.04
2023-04-10T11:30:04.342Z,957.06
2023-04-10T11:31:04.318Z,957.07
2023-04-10T11:32:04.349Z,957.07
2023-04-10T11:33:04.359Z,957.03
2023-04-10T11:34:04.290Z,957.02
2023-04-10T11:35:34.849Z,957.01
2023-04-10T11:36:04.276Z,957.01
2023-04-10T11:37:04.260Z,956.97
2023-04-10T11:38:04.236Z,956.93
2023-04-10T11:39:04.193Z,956.93
2023-04-10T11:40:04.230Z,956.90
2023-04-10T11:41:04.260Z,956.88
2023-04-10T11:42:04.158Z,956.85
2023-04-10T11:43:04.174Z,956.83
2023-04-10T11:44:04.120Z,956.80
2023-04-10T11:45:04.123Z,956.78
2023-04-10T11:46:04.216Z,956.74
2023-04-10T11:47:04.073Z,956.71
2023-04-10T11:48:04.134Z,956.72
2023-04-10T11:49:04.091Z,956.68
2023-04-10T11:50:04.046Z,956.65
2023-04-10T11:51:04.036Z,956.64
2023-04-10T11:52:04.038Z,956.56
2023-04-10T11:53:04.019Z,956.55
2023-04-10T11:54:03.994Z,956.57
2023-04-10T11:55:03.989Z,956.49
2023-04-10T11:56:04.010Z,956.51
2023-04-10T11:57:03.945Z,956.49
2023-04-10T11:58:03.971Z,956.48
2023-04-10T11:59:03.922Z,956.50
2023-04-10T12:00:03.904Z,956.45
2023-04-10T12:01:03.893Z,956.46
2023-04-10T12:02:03.881Z,956.46
2023-04-10T12:03:04.012Z,956.39
2023-04-10T12:04:04.025Z,956.38
2023-04-10T12:05:03.911Z,956.38
2023-04-10T12:06:03.816Z,956.38
2023-04-10T12:07:03.813Z,956.41
2023-04-10T12:08:03.810Z,956.35
2023-04-10T12:09:03.799Z,956.37
2023-04-10T12:10:03.798Z,956.30
2023-04-10T12:11:03.766Z,956.25
2023-04-10T12:12:03.759Z,956.25
2023-04-10T12:13:04.167Z,956.24
2023-04-10T12:14:03.702Z,956.21
2023-04-10T12:15:03.722Z,956.28
2023-04-10T12:16:03.704Z,956.26
2023-04-10T12:17:03.714Z,956.25
2023-04-10T12:18:03.721Z,956.25
2023-04-10T12:19:03.643Z,956.20
2023-04-10T12:20:03.627Z,956.27
2023-04-10T12:21:04.707Z,956.19
2023-04-10T12:22:03.620Z,956.13
2023-04-10T12:23:03.643Z,956.14
2023-04-10T12:24:03.572Z,956.12
2023-04-10T12:25:03.576Z,956.12
2023-04-10T12:26:03.538Z,956.09
2023-04-10T12:27:03.540Z,956.12
2023-04-10T12:28:03.550Z,956.11
2023-04-10T12:29:03.567Z,956.14
2023-04-10T12:30:03.505Z,956.08
2023-04-10T12:31:03.528Z,956.06
2023-04-10T12:32:03.483Z,956.10
2023-04-10T12:33:03.540Z,956.08